Terminal Aerodrome Forecast
Issued by NWS

Home | Current Version | Previous Version | Text Only | Print | Product List | Glossary On
Versions: 1 2 3 4 5 6 7 8 9 10 11 12 13 14 15 16 17 18 19 20 21 22 23
000
FTUS42 KMLB 061725
TAFLEE
TAF
KLEE 061725Z 0618/0718 03010KT P6SM FEW008 OVC012
      TEMPO 0618/0620 2SM -RA BR OVC008
     FM070000 02013KT P6SM OVC008
     FM070600 01011KT P6SM OVC004
     FM071400 01013KT P6SM FEW008 OVC025=

USA.gov is the U.S. government's official web portal to all federal, state and local government web resources and services.